Latest Weather Observations for Moruya Airport

IDN60901

Issued at 11:15 pm EST Tuesday 22 July 2014 (issued every 10 minutes, with the page automatically refreshed every 10 minutes)

About weather observations | Map of Canberra area stations | Latest observations for Canberra area | Other Formats
Station Details ID: 069148 Name: MORUYA AIRPORT AWS Lat: -35.90 Lon: 150.14 Height: 4.0 m
Data from the previous 72 hours. | See also: Recent months for locations in Aust Capital Territory
Date/Time
EST
Tmp

°C
App
Tmp
°C
Dew
Point
°C
Rel
Hum
%
Delta-T

°C
Wind Press
QNH
hPa
Press
MSL
hPa
Rain
since
9 am
mm
Dir
 
Spd
km/h
Gust
km/h
Spd
kts
Gust
kts
22/11:00pm 9.6 7.2 7.0 84 1.2 W 9 11 5 6 1024.8 1024.8 0.0
22/10:30pm 10.4 8.1 7.6 83 1.3 W 9 15 5 8 1024.9 - 0.0
22/10:00pm 10.7 8.5 7.9 83 1.3 W 9 11 5 6 1024.7 1024.7 0.0
22/09:30pm 10.0 8.3 8.3 89 0.8 W 7 11 4 6 1024.6 - 0.0
22/09:00pm 9.7 8.1 7.8 88 0.9 W 6 9 3 5 1024.7 1024.7 0.0
22/08:30pm 9.8 8.2 8.2 90 0.8 WSW 6 7 3 4 1024.6 - 0.0
22/08:00pm 9.9 8.4 8.3 90 0.8 W 6 7 3 4 1024.6 1024.6 0.0
22/07:30pm 8.9 7.0 7.7 92 0.6 W 7 11 4 6 1024.7 - 0.0
22/07:00pm 8.4 6.0 7.2 92 0.6 WSW 9 11 5 6 1024.6 1024.6 0.0
22/06:30pm 9.3 7.4 7.7 90 0.8 WSW 7 9 4 5 1024.5 - 0.0
22/06:00pm 9.6 7.8 7.9 89 0.8 W 7 9 4 5 1024.2 1024.2 0.0
22/05:30pm 10.0 8.4 7.8 86 1.1 WSW 6 7 3 4 1023.8 - 0.0
22/05:00pm 12.1 10.2 7.4 73 2.3 SSW 7 11 4 6 1023.6 1023.6 0.0
22/04:30pm 14.0 11.3 7.3 64 3.3 SSE 11 17 6 9 1023.3 - 0.0
22/04:00pm 14.7 11.7 7.7 63 3.5 SSE 13 15 7 8 1023.2 1023.2 0.0
22/03:30pm 15.0 12.1 8.0 63 3.5 SSE 13 17 7 9 1023.0 - 0.0
22/03:00pm 15.1 12.2 8.1 63 3.5 SE 13 17 7 9 1022.8 1022.8 0.0
22/02:30pm 15.1 12.1 7.6 61 3.7 ESE 13 17 7 9 1022.8 - 0.0
22/02:00pm 15.5 12.4 8.7 64 3.4 ESE 15 20 8 11 1022.9 1022.9 0.0
22/01:30pm 15.3 12.4 8.1 62 3.6 SE 13 19 7 10 1022.9 - 0.0
22/01:00pm 15.5 12.6 8.3 62 3.6 ESE 13 17 7 9 1023.2 1023.2 0.0
22/12:30pm 15.1 12.2 8.1 63 3.5 SE 13 17 7 9 1023.5 - 0.0
22/12:00pm 15.4 13.6 7.2 58 4.0 SSE 6 11 3 6 1024.1 1024.1 0.0
22/11:30am 14.6 12.1 6.4 58 4.0 SSW 9 13 5 7 1024.7 - 0.0
22/11:00am 14.3 11.7 7.6 64 3.3 SSW 11 15 6 8 1025.1 1025.1 0.0
22/10:30am 13.2 10.8 6.8 65 3.1 SW 9 13 5 7 1025.4 - 0.0
22/10:00am 12.2 10.0 7.9 75 2.1 WSW 9 13 5 7 1025.5 1025.5 0.0
22/09:30am 10.4 8.3 8.2 86 1.1 WSW 9 15 5 8 1025.5 - 0.0
22/09:00am 8.4 5.4 7.6 95 0.4 WSW 13 15 7 8 1025.4 1025.4 0.0
22/08:30am 7.0 5.1 6.9 99 0.0 WSW 6 11 3 6 1025.2 - 0.0
22/08:00am 5.2 3.0 5.1 99 0.0 WSW 6 9 3 5 1025.0 1025.0 0.0
22/07:36am 3.4 1.2 3.3 99 0.0 NW 4 7 2 4 1024.7 - 0.0
22/07:30am 2.9 1.4 2.8 99 0.0 CALM 0 0 0 0 1024.6 - 0.0
22/07:00am 2.2 -0.6 2.1 99 0.0 NW 6 7 3 4 1024.2 1024.2 0.0
22/06:45am 2.7 1.1 2.6 99 0.0 CALM 0 2 0 1 1024.1 - 0.0
22/06:30am 3.8 1.3 3.7 99 0.0 W 6 9 3 5 1023.9 - 0.0
22/06:26am 3.6 1.1 3.5 99 0.0 W 6 9 3 5 1023.8 - 0.0
22/06:13am 3.0 1.1 2.9 99 0.0 WSW 2 7 1 4 1023.9 - 0.0
22/06:00am 5.1 2.3 5.0 99 0.0 WSW 9 15 5 8 1023.8 1023.8 0.0
22/05:30am 4.2 2.1 4.1 99 0.0 SSW 4 9 2 5 1023.7 - 0.0
22/05:15am 4.0 1.5 3.9 99 0.0 WNW 6 7 3 4 1023.6 - 0.0
22/05:00am 4.1 2.8 4.0 99 0.0 CALM 0 0 0 0 1023.6 1023.6 0.0
22/04:56am 3.8 2.4 3.7 99 0.0 CALM 0 0 0 0 1023.6 - 0.0
22/04:53am 3.9 2.5 3.8 99 0.0 CALM 0 0 0 0 1023.6 - 0.0
22/04:30am 3.2 1.7 3.1 99 0.0 WNW 0 0 0 0 1023.3 - 0.0
22/04:01am 4.3 2.6 4.2 99 0.0 WSW 2 7 1 4 1023.3 - 0.0
22/04:00am 4.2 2.5 4.1 99 0.0 WSW 2 7 1 4 1023.3 1023.3 0.0
22/03:58am 4.4 2.4 4.3 99 0.0 WSW 4 9 2 5 1023.3 - 0.0
22/03:30am 4.8 3.6 4.5 98 0.1 CALM 0 0 0 0 1023.4 - 0.0
22/03:23am 5.1 3.9 4.8 98 0.1 CALM 0 0 0 0 1023.5 - 0.0
22/03:00am 6.4 4.4 6.1 98 0.1 W 6 9 3 5 1023.4 1023.4 0.0
22/02:30am 7.2 4.8 7.1 99 0.0 W 9 13 5 7 1023.5 - 0.0
22/02:00am 6.5 4.5 6.4 99 0.0 W 6 9 3 5 1023.6 1023.6 0.0
22/01:30am 6.7 4.8 6.6 99 0.0 WNW 6 11 3 6 1023.9 - 0.0
22/01:00am 6.7 5.5 6.3 97 0.2 WNW 2 6 1 3 1024.0 1024.0 0.0
22/12:30am 7.7 5.9 7.3 97 0.2 W 6 7 3 4 1024.0 - 0.0
22/12:00am 8.3 7.8 7.7 96 0.3 WSW 0 0 0 0 1024.2 1024.2 0.0
 
Date/Time
EST
Tmp

°C
App
Tmp
°C
Dew
Point
°C
Rel
Hum
%
Delta-T

°C
Wind Press
QNH
hPa
Press
MSL
hPa
Rain
since
9 am
mm
Dir
 
Spd
km/h
Gust
km/h
Spd
kts
Gust
kts
21/11:30pm 8.5 7.9 7.4 93 0.5 CALM 0 0 0 0 1024.5 - 0.0
21/11:00pm 8.9 7.1 7.2 89 0.8 W 6 7 3 4 1024.6 1024.6 0.0
21/10:30pm 10.0 8.4 7.8 86 1.1 W 6 9 3 5 1024.8 - 0.0
21/10:00pm 9.9 8.6 7.7 86 1.0 W 4 7 2 4 1024.8 1024.8 0.0
21/09:30pm 9.7 8.1 7.8 88 0.9 W 6 9 3 5 1024.9 - 0.0
21/09:00pm 9.6 8.0 8.0 90 0.8 WNW 6 7 3 4 1024.9 1024.9 0.0
21/08:30pm 9.4 7.7 8.5 94 0.4 W 7 9 4 5 1025.0 - 0.0
21/08:00pm 8.1 6.3 8.0 99 0.0 W 7 11 4 6 1024.9 1024.9 0.0
21/07:30pm 6.7 4.6 6.6 99 0.0 W 7 9 4 5 1024.8 - 0.0
21/07:00pm 7.2 5.4 7.1 99 0.0 W 6 6 3 3 1024.6 1024.6 0.0
21/06:30pm 7.4 6.3 7.0 97 0.2 WSW 2 6 1 3 1024.5 - 0.0
21/06:00pm 8.1 7.5 7.2 94 0.4 CALM 0 0 0 0 1024.2 1024.2 0.0
21/05:30pm 9.5 9.0 7.9 90 0.8 CALM 0 0 0 0 1023.9 - 0.0
21/05:00pm 11.5 10.1 7.4 76 2.0 NNE 4 7 2 4 1023.6 1023.6 0.0
21/04:30pm 14.0 12.1 7.5 65 3.2 ENE 7 9 4 5 1023.6 - 0.0
21/04:00pm 14.7 12.4 7.3 61 3.6 E 9 11 5 6 1023.5 1023.5 0.0
21/03:30pm 14.8 12.5 7.4 61 3.6 E 9 11 5 6 1023.5 - 0.0
21/03:00pm 14.6 12.3 7.6 63 3.4 E 9 13 5 7 1023.4 1023.4 0.0
21/02:30pm 14.7 12.1 7.7 63 3.5 E 11 13 6 7 1023.5 - 0.0
21/02:00pm 14.4 12.0 7.2 62 3.5 E 9 13 5 7 1023.7 1023.7 0.0
21/01:30pm 14.3 12.2 6.6 60 3.7 ENE 7 11 4 6 1023.9 - 0.0
21/01:00pm 14.1 12.2 6.7 61 3.6 ENE 6 7 3 4 1024.2 1024.2 0.0
21/12:30pm 13.9 11.8 6.0 59 3.8 ENE 6 9 3 5 1024.7 - 0.0
21/12:00pm 14.0 12.0 6.1 59 3.7 ENE 6 9 3 5 1025.2 1025.2 0.0
21/11:30am 13.4 12.2 6.5 63 3.3 S 2 7 1 4 1025.7 - 0.0
21/11:00am 12.0 9.4 6.3 68 2.7 SW 9 11 5 6 1026.2 1026.2 0.0
21/10:30am 10.2 7.5 5.8 74 2.0 SW 9 13 5 7 1026.6 - 0.0
21/10:00am 8.8 6.0 5.2 78 1.6 SW 9 11 5 6 1026.8 1026.8 0.0
21/09:30am 7.6 4.9 5.4 86 1.0 WSW 9 11 5 6 1027.0 - 0.0
21/09:00am 6.7 4.0 5.8 94 0.4 SW 9 11 5 6 1027.0 1027.0 0.0
21/08:30am 5.4 3.2 5.3 99 0.0 W 6 9 3 5 1026.9 - 0.0
21/08:00am 3.9 1.4 3.8 99 0.0 SW 6 9 3 5 1026.9 1026.9 0.0
21/07:30am 2.1 0.4 2.0 99 0.0 CALM 0 0 0 0 1026.7 - 0.0
21/07:00am 2.2 0.5 2.1 99 0.0 CALM 0 0 0 0 1026.4 1026.4 0.0
21/06:30am 2.9 1.4 2.8 99 0.0 CALM 0 0 0 0 1026.3 - 0.0
21/06:00am 2.8 1.2 2.7 99 0.0 CALM 0 0 0 0 1026.3 1026.3 0.0
21/05:30am 3.0 0.7 2.9 99 0.0 W 4 9 2 5 1026.1 - 0.0
21/05:00am 2.4 -0.4 2.3 99 0.0 W 6 7 3 4 1025.8 1025.8 0.0
21/04:30am 2.6 -0.1 2.5 99 0.0 W 6 7 3 4 1025.8 - 0.0
21/04:00am 2.9 0.0 2.8 99 0.0 W 7 9 4 5 1025.8 1025.8 0.0
21/03:30am 3.2 0.6 3.1 99 0.0 WSW 6 7 3 4 1026.0 - 0.0
21/03:00am 2.9 0.2 2.8 99 0.0 W 6 7 3 4 1026.0 1026.0 0.0
21/02:30am 3.3 0.7 3.2 99 0.0 WSW 6 9 3 5 1026.1 - 0.0
21/02:00am 3.3 1.8 3.2 99 0.0 CALM 0 0 0 0 1026.2 1026.2 0.0
21/01:30am 3.1 1.5 2.7 97 0.2 CALM 0 0 0 0 1026.3 - 0.0
21/01:00am 4.1 1.4 3.5 96 0.2 WSW 7 7 4 4 1026.4 1026.4 0.0
21/12:30am 4.6 1.9 3.9 95 0.3 W 7 9 4 5 1026.4 - 0.0
21/12:00am 5.1 3.3 3.3 88 0.7 W 2 7 1 4 1026.5 1026.5 0.0
 
Date/Time
EST
Tmp

°C
App
Tmp
°C
Dew
Point
°C
Rel
Hum
%
Delta-T

°C
Wind Press
QNH
hPa
Press
MSL
hPa
Rain
since
9 am
mm
Dir
 
Spd
km/h
Gust
km/h
Spd
kts
Gust
kts
20/11:30pm 6.2 3.6 4.4 88 0.8 WSW 7 11 4 6 1026.6 - 0.0
20/11:00pm 5.8 2.8 4.3 90 0.6 W 9 11 5 6 1026.7 1026.7 0.0
20/10:30pm 6.9 4.4 4.7 86 1.0 WSW 7 11 4 6 1026.7 - 0.0
20/10:00pm 7.6 4.7 4.9 83 1.2 W 9 13 5 7 1026.7 1026.7 0.0
20/09:30pm 8.1 5.3 5.0 81 1.4 W 9 13 5 7 1026.7 - 0.0
20/09:00pm 8.4 5.7 5.5 82 1.3 W 9 15 5 8 1026.8 1026.8 0.0
20/08:30pm 8.1 5.4 5.6 84 1.1 W 9 11 5 6 1026.7 - 0.0
20/08:00pm 8.1 5.1 5.9 86 1.0 W 11 13 6 7 1026.7 1026.7 0.0
20/07:30pm 7.0 4.8 6.1 94 0.4 W 7 13 4 7 1026.6 - 0.0
20/07:00pm 6.0 3.5 4.8 92 0.5 W 7 9 4 5 1026.5 1026.5 0.0
20/06:30pm 6.9 4.8 5.7 92 0.5 W 6 9 3 5 1026.2 - 0.0
20/06:00pm 7.7 5.6 5.7 87 0.9 SW 6 7 3 4 1026.0 1026.0 0.0
20/05:30pm 9.1 7.0 5.8 80 1.5 SW 6 7 3 4 1025.6 - 0.0
20/05:00pm 11.7 9.1 4.4 61 3.3 SSE 7 11 4 6 1025.6 1025.6 0.0
20/04:30pm 13.9 11.0 4.5 53 4.3 SE 9 13 5 7 1025.5 - 0.0
20/04:00pm 14.9 11.6 4.3 49 4.9 SE 11 15 6 8 1025.5 1025.5 0.0
20/03:30pm 15.3 11.8 5.5 52 4.7 ESE 13 17 7 9 1025.5 - 0.0
20/03:00pm 15.4 11.3 4.5 48 5.1 ESE 15 20 8 11 1025.4 1025.4 0.0
20/02:30pm 15.5 11.5 5.1 50 4.9 SE 15 19 8 10 1025.5 - 0.0
20/02:00pm 15.2 11.7 3.4 45 5.3 S 11 17 6 9 1025.5 1025.5 0.0
20/01:30pm 16.1 12.7 3.9 44 5.6 SSW 11 19 6 10 1025.6 - 0.0
20/01:00pm 16.1 13.5 4.2 45 5.5 SSW 7 11 4 6 1025.8 1025.8 0.0
20/12:30pm 15.7 11.4 3.2 43 5.7 S 15 20 8 11 1026.1 - 0.0
20/12:00pm 15.6 11.4 3.7 45 5.4 SSW 15 22 8 12 1026.5 1026.5 0.0
20/11:30am 15.2 10.6 3.7 46 5.3 SW 17 24 9 13 1027.0 - 0.0
20/11:00am 15.1 11.4 4.2 48 5.0 WSW 13 17 7 9 1027.2 1027.2 0.0
20/10:30am 14.2 10.4 3.9 50 4.7 W 13 19 7 10 1027.3 - 0.0
20/10:00am 13.4 10.0 4.0 53 4.2 W 11 15 6 8 1027.4 1027.4 0.0
20/09:30am 11.9 8.1 3.9 58 3.6 W 13 19 7 10 1027.5 - 0.0
20/09:00am 10.6 6.6 2.9 59 3.3 W 13 22 7 12 1027.4 1027.4 0.0
20/08:30am 9.8 5.3 2.4 60 3.1 W 15 20 8 11 1027.2 - 0.0
20/08:00am 8.6 4.5 2.4 65 2.6 W 13 19 7 10 1027.0 1027.0 0.0
20/07:30am 7.9 4.2 2.4 68 2.3 W 11 15 6 8 1026.7 - 0.0
20/07:00am 7.6 4.3 2.3 69 2.2 W 9 13 5 7 1026.5 1026.5 0.0
20/06:30am 6.7 3.7 1.8 71 2.0 W 7 11 4 6 1026.3 - 0.0
20/06:00am 7.5 3.4 2.0 68 2.2 WSW 13 17 7 9 1025.9 1025.9 0.0
20/05:30am 6.6 3.1 1.5 70 2.0 WSW 9 13 5 7 1025.7 - 0.0
20/05:00am 8.1 4.0 2.1 66 2.5 WSW 13 20 7 11 1025.4 1025.4 0.0
20/04:30am 6.2 2.4 1.7 73 1.8 WSW 11 13 6 7 1025.4 - 0.0
20/04:00am 6.2 2.7 1.1 70 2.0 W 9 13 5 7 1025.6 1025.6 0.0
20/03:30am 8.9 5.0 1.3 59 3.1 WSW 11 15 6 8 1025.7 - 0.0
20/03:00am 10.1 5.5 1.7 56 3.5 WSW 15 22 8 12 1025.8 1025.8 0.0
20/02:30am 10.3 5.3 1.4 54 3.7 SW 17 24 9 13 1025.9 - 0.0
20/02:00am 10.2 5.2 1.6 55 3.6 SW 17 24 9 13 1025.7 1025.7 0.0
20/01:30am 10.1 5.5 1.7 56 3.5 WSW 15 20 8 11 1025.7 - 0.0
20/01:00am 9.7 5.1 1.6 57 3.3 SW 15 17 8 9 1025.8 1025.8 0.0
20/12:30am 9.8 5.6 1.5 56 3.4 WSW 13 19 7 10 1025.9 - 0.0
20/12:00am 9.9 5.3 1.5 56 3.5 WSW 15 22 8 12 1025.9 1025.9 0.0
 
Date/Time
EST
Tmp

°C
App
Tmp
°C
Dew
Point
°C
Rel
Hum
%
Delta-T

°C
Wind Press
QNH
hPa
Press
MSL
hPa
Rain
since
9 am
mm
Dir
 
Spd
km/h
Gust
km/h
Spd
kts
Gust
kts
19/11:30pm 9.5 4.5 1.4 57 3.3 SW 17 22 9 12 1025.9 - 0.0

Latest Capital City Observations: Canberra | Sydney | Melbourne | Brisbane | Adelaide | Perth | Hobart | Darwin

Other Formats:

Comma delimited format used in spreadsheet applications
http://www.bom.gov.au/fwo/IDN60903/IDN60903.95937.axf

JavaScript Object Notation format (JSON) in row-major order
http://www.bom.gov.au/fwo/IDN60903/IDN60903.95937.json